Southport, Indiana
Current Conditions -  °F | °C
As of 10:54 AM on Monday 24 Nov 2014 (Local Time) from KIND Reporting Station
Overcast Overcast  
Wind Chill: 26°   Ceiling: 1800
Heat Index: 39°   Visibility: 10mi
Dew Point: 35°   Wind: 35mph
Humidity: 86%   Direction: 250°WSW
Pressure: 29.46"   Gusts: 46mph
Location:  39.6749°N, 86.1316°W
Report Text: KIND 241554Z 25030G40KT 10SM OVC018 04/02 A2946 RMK AO2 PK WND 25040/1554 PRESRR SLP978 T00390017
Loading
Personal Weather Stations






























Interactive Weather Map New forecast layout! Learn more

10-Day Weather Forecast

Advertisements
Track Severe Weather on mobile